Time;durP1;ratioP1;P1;durP2;ratioP2;P2;SDS_P1;SDS_P2;PMS_P1;PMS_P2;Temp;Humidity;BMP_temperature;BMP_pressure;BME280_temperature;BME280_humidity;BME280_pressure;Samples;Min_cycle;Max_cycle;Signal;HPM_P1;HPM_P2
2020/12/03 00:00:55;;;;;;;31.15;10.63;;;6.30;99.90;;;;;;5095215;28;20076;-60
2020/12/03 00:03:25;;;;;;;26.08;11.77;;;6.20;99.90;;;;;;5093566;28;20422;-61
2020/12/03 00:06:02;;;;;;;29.95;10.15;;;6.20;99.90;;;;;;5091167;28;20055;-61
2020/12/03 00:08:31;;;;;;;26.55;10.07;;;6.20;99.90;;;;;;5091153;28;20047;-61
2020/12/03 00:11:00;;;;;;;31.38;12.15;;;6.20;99.90;;;;;;5085500;28;20024;-61
2020/12/03 00:13:28;;;;;;;31.33;10.85;;;6.10;99.90;;;;;;5093035;28;20386;-62
2020/12/03 00:15:56;;;;;;;35.75;12.00;;;6.10;99.90;;;;;;5094088;28;20024;-61
2020/12/03 00:18:27;;;;;;;35.85;11.80;;;6.10;99.90;;;;;;5093998;28;20668;-60
2020/12/03 00:20:53;;;;;;;35.92;11.43;;;6.10;99.90;;;;;;5095678;28;20039;-61
2020/12/03 00:23:19;;;;;;;37.70;11.32;;;6.10;99.90;;;;;;5100123;28;20090;-59
2020/12/03 00:25:46;;;;;;;40.47;13.00;;;6.10;99.90;;;;;;5110235;28;20024;-60
2020/12/03 00:28:11;;;;;;;40.92;13.05;;;6.10;99.90;;;;;;5116795;28;20027;-62
2020/12/03 00:30:37;;;;;;;37.72;12.90;;;6.20;99.90;;;;;;5102945;28;20044;-62
2020/12/03 00:33:03;;;;;;;44.97;13.43;;;6.10;99.90;;;;;;5093788;28;20520;-63
2020/12/03 00:35:28;;;;;;;40.47;13.95;;;6.10;99.90;;;;;;5074061;28;20498;-65
2020/12/03 00:37:54;;;;;;;33.58;13.65;;;6.00;99.90;;;;;;5086539;28;20032;-61
2020/12/03 00:40:20;;;;;;;36.20;12.18;;;6.10;99.90;;;;;;5090434;28;20139;-62
2020/12/03 00:42:46;;;;;;;35.08;12.02;;;6.00;99.90;;;;;;5092936;28;20023;-62
2020/12/03 00:45:14;;;;;;;30.38;11.75;;;6.00;99.90;;;;;;5090858;28;20024;-62
2020/12/03 00:47:41;;;;;;;33.80;11.65;;;6.00;99.90;;;;;;5092021;28;20024;-61
2020/12/03 00:50:09;;;;;;;33.17;10.10;;;6.00;99.90;;;;;;5087101;28;20039;-59
2020/12/03 00:52:35;;;;;;;28.35;10.02;;;6.00;99.90;;;;;;5088001;28;20038;-60
2020/12/03 00:55:00;;;;;;;42.25;11.50;;;6.00;99.90;;;;;;5090139;28;20035;-60
2020/12/03 00:57:26;;;;;;;34.95;10.32;;;6.00;99.90;;;;;;5079616;28;20431;-62
2020/12/03 00:59:52;;;;;;;33.72;9.82;;;6.00;99.90;;;;;;5092513;28;20028;-63
2020/12/03 01:02:17;;;;;;;30.88;9.35;;;6.00;99.90;;;;;;5074725;28;20052;-62
2020/12/03 01:04:43;;;;;;;34.15;8.55;;;5.90;99.90;;;;;;5092797;28;20489;-61
2020/12/03 01:07:10;;;;;;;28.70;9.20;;;6.00;99.90;;;;;;5093508;28;20027;-62
2020/12/03 01:09:37;;;;;;;32.78;8.80;;;6.00;99.90;;;;;;5071872;28;20502;-61
2020/12/03 01:12:06;;;;;;;31.80;8.50;;;6.00;99.90;;;;;;5096628;28;20108;-59
2020/12/03 01:14:34;;;;;;;25.25;7.93;;;6.00;99.90;;;;;;5097571;28;20047;-60
2020/12/03 01:17:01;;;;;;;33.95;8.38;;;6.00;99.90;;;;;;5093833;28;20035;-61
2020/12/03 01:19:27;;;;;;;26.40;9.23;;;6.10;99.90;;;;;;5084410;28;20099;-61
2020/12/03 01:21:52;;;;;;;23.33;8.27;;;6.10;99.90;;;;;;5086627;28;20056;-60
2020/12/03 01:24:18;;;;;;;30.38;7.78;;;6.10;99.90;;;;;;5090034;28;20030;-61
2020/12/03 01:26:43;;;;;;;25.90;9.15;;;6.20;99.90;;;;;;5092638;28;20097;-62
2020/12/03 01:29:09;;;;;;;31.05;8.07;;;6.20;99.90;;;;;;5088038;28;20385;-61
2020/12/03 01:31:34;;;;;;;38.17;8.98;;;6.10;99.90;;;;;;5090615;28;20028;-61
2020/12/03 01:34:00;;;;;;;24.55;8.43;;;6.10;99.90;;;;;;5092701;28;20019;-61
2020/12/03 01:36:26;;;;;;;24.23;6.72;;;6.00;99.90;;;;;;5075245;28;20454;-60
2020/12/03 01:38:51;;;;;;;19.02;7.03;;;6.10;99.90;;;;;;5091587;28;20016;-60
2020/12/03 01:41:17;;;;;;;19.52;7.25;;;6.10;99.90;;;;;;5091625;28;20075;-60
2020/12/03 01:43:44;;;;;;;23.92;7.60;;;6.10;99.90;;;;;;5060564;28;20058;-60
2020/12/03 01:46:10;;;;;;;25.00;7.28;;;6.10;99.90;;;;;;5089648;28;20035;-61
2020/12/03 01:48:44;;;;;;;21.10;7.30;;;6.10;99.90;;;;;;5091141;28;20032;-60
2020/12/03 01:51:23;;;;;;;24.70;7.82;;;6.10;99.90;;;;;;5088639;28;20178;-62
2020/12/03 01:53:50;;;;;;;26.90;7.35;;;6.10;99.90;;;;;;5089242;28;20096;-61
2020/12/03 01:56:51;;;;;;;26.17;8.48;;;6.20;99.90;;;;;;5088266;28;20035;-60
2020/12/03 01:59:18;;;;;;;30.55;8.50;;;6.20;99.90;;;;;;5086123;28;20063;-59
2020/12/03 02:01:44;;;;;;;28.00;8.20;;;6.20;99.90;;;;;;5085716;28;20035;-61
2020/12/03 02:04:09;;;;;;;30.83;8.45;;;6.20;99.90;;;;;;5088364;28;20044;-61
2020/12/03 02:06:37;;;;;;;24.25;8.05;;;6.20;99.90;;;;;;5085470;28;20447;-61
2020/12/03 02:09:04;;;;;;;30.58;7.45;;;6.30;99.90;;;;;;5071461;28;20028;-62
2020/12/03 02:11:30;;;;;;;28.90;7.95;;;6.30;99.90;;;;;;5089333;28;20371;-60
2020/12/03 02:14:04;;;;;;;25.80;8.30;;;6.30;99.90;;;;;;5091388;28;20113;-62
2020/12/03 02:16:35;;;;;;;30.83;7.47;;;6.30;99.90;;;;;;5085524;28;20509;-61
2020/12/03 02:19:01;;;;;;;20.42;7.03;;;6.40;99.90;;;;;;5090472;28;20020;-61
2020/12/03 02:21:26;;;;;;;29.80;7.30;;;6.40;99.90;;;;;;5091439;28;20019;-62
2020/12/03 02:23:52;;;;;;;26.23;7.65;;;6.40;99.90;;;;;;5080701;28;20025;-59
2020/12/03 02:26:18;;;;;;;24.63;7.00;;;6.30;99.90;;;;;;5084656;28;20444;-62
2020/12/03 02:28:44;;;;;;;18.63;7.60;;;6.30;99.90;;;;;;5092178;28;20032;-61
2020/12/03 02:31:11;;;;;;;26.92;7.20;;;6.30;99.90;;;;;;5091790;28;20031;-60
2020/12/03 02:33:37;;;;;;;24.60;7.70;;;6.30;99.90;;;;;;5090599;28;20024;-60
2020/12/03 02:36:03;;;;;;;26.70;8.32;;;6.30;99.90;;;;;;5079293;28;20033;-60
2020/12/03 02:38:29;;;;;;;19.60;7.90;;;6.20;99.90;;;;;;5089794;28;20036;-61
2020/12/03 02:40:56;;;;;;;24.45;8.20;;;6.20;99.90;;;;;;5084695;28;20474;-61
2020/12/03 02:43:22;;;;;;;30.02;9.43;;;6.20;99.90;;;;;;5089810;28;20032;-59
2020/12/03 02:45:48;;;;;;;34.03;12.02;;;6.20;99.90;;;;;;5077300;28;20024;-60
2020/12/03 02:48:13;;;;;;;22.70;9.82;;;6.20;99.90;;;;;;5087896;28;20483;-61
2020/12/03 02:50:39;;;;;;;32.35;10.60;;;6.20;99.90;;;;;;5090221;28;20024;-61
2020/12/03 02:53:04;;;;;;;30.70;9.52;;;6.30;99.90;;;;;;5087271;28;20470;-61
2020/12/03 02:55:30;;;;;;;26.13;10.02;;;6.30;99.90;;;;;;5092229;28;20426;-60
2020/12/03 02:57:55;;;;;;;33.83;12.40;;;6.30;99.90;;;;;;5088128;28;20033;-61
2020/12/03 03:00:21;;;;;;;23.05;10.43;;;6.30;99.90;;;;;;5089414;28;20024;-64
2020/12/03 03:02:48;;;;;;;34.80;12.63;;;6.30;99.90;;;;;;5105217;28;20134;-61
2020/12/03 03:05:14;;;;;;;33.00;12.48;;;6.30;99.90;;;;;;5096804;28;20059;-60
2020/12/03 03:07:39;;;;;;;26.92;12.43;;;6.30;99.90;;;;;;5077177;28;20028;-61
2020/12/03 03:10:05;;;;;;;26.65;13.23;;;6.30;99.90;;;;;;5085957;28;20048;-61
2020/12/03 03:12:30;;;;;;;38.53;14.38;;;6.30;99.90;;;;;;5078109;28;20052;-60
2020/12/03 03:14:56;;;;;;;38.28;14.82;;;6.30;99.90;;;;;;5093698;28;20109;-59
2020/12/03 03:17:21;;;;;;;39.17;13.77;;;6.30;99.90;;;;;;5092724;28;20546;-60
2020/12/03 03:19:47;;;;;;;36.03;16.05;;;6.30;99.90;;;;;;5085328;28;20024;-61
2020/12/03 03:22:13;;;;;;;42.90;15.93;;;6.30;99.90;;;;;;5080517;28;20111;-61
2020/12/03 03:24:38;;;;;;;39.03;15.05;;;6.30;99.90;;;;;;5092313;28;20090;-63
2020/12/03 03:27:04;;;;;;;43.13;17.70;;;6.30;99.90;;;;;;5089399;28;20038;-59
2020/12/03 03:29:29;;;;;;;36.13;16.13;;;6.30;99.90;;;;;;5093821;28;20028;-63
2020/12/03 03:31:55;;;;;;;31.80;15.88;;;6.30;99.90;;;;;;5092763;28;20033;-61
2020/12/03 03:34:20;;;;;;;33.72;15.73;;;6.40;99.90;;;;;;5093418;28;20028;-60
2020/12/03 03:36:46;;;;;;;33.40;16.95;;;6.40;99.90;;;;;;5088107;28;20418;-61
2020/12/03 03:39:18;;;;;;;42.63;18.60;;;6.40;99.90;;;;;;5095659;28;20071;-60
2020/12/03 03:41:44;;;;;;;33.67;18.30;;;6.40;99.90;;;;;;5093509;28;20027;-60
2020/12/03 03:44:09;;;;;;;34.97;17.88;;;6.50;99.90;;;;;;5094624;28;20085;-60
2020/12/03 03:46:35;;;;;;;37.58;18.70;;;6.40;99.90;;;;;;5094400;28;20554;-60
2020/12/03 03:49:01;;;;;;;35.72;16.48;;;6.40;99.90;;;;;;5093702;28;20391;-61
2020/12/03 03:51:27;;;;;;;43.03;18.67;;;6.40;99.90;;;;;;5089665;28;20069;-61
2020/12/03 03:53:52;;;;;;;33.28;19.13;;;6.40;99.90;;;;;;5110370;28;20013;-60
2020/12/03 03:56:18;;;;;;;36.22;19.55;;;6.40;99.90;;;;;;5115532;28;20063;-60
2020/12/03 03:58:44;;;;;;;38.33;20.23;;;6.30;99.90;;;;;;5106787;28;20027;-60
2020/12/03 04:01:09;;;;;;;37.20;19.73;;;6.30;99.90;;;;;;5075508;28;20390;-62
2020/12/03 04:03:35;;;;;;;43.40;18.63;;;6.30;99.90;;;;;;5093434;28;20064;-60
2020/12/03 04:06:00;;;;;;;41.92;22.23;;;6.40;99.90;;;;;;5093190;28;20020;-60
2020/12/03 04:08:27;;;;;;;48.72;20.45;;;6.40;99.90;;;;;;5087436;28;20035;-60
2020/12/03 04:10:53;;;;;;;39.78;20.17;;;6.40;99.90;;;;;;5093233;28;20541;-60
2020/12/03 04:13:20;;;;;;;42.92;21.38;;;6.40;99.90;;;;;;5093674;28;20020;-61
2020/12/03 04:15:46;;;;;;;43.90;21.75;;;6.40;99.90;;;;;;5093410;28;20036;-60
2020/12/03 04:18:12;;;;;;;38.72;20.48;;;6.40;99.90;;;;;;5087180;28;20028;-61
2020/12/03 04:20:37;;;;;;;41.38;20.75;;;6.40;99.90;;;;;;5092694;28;20024;-61
2020/12/03 04:23:03;;;;;;;38.83;21.55;;;6.40;99.90;;;;;;5085755;28;20074;-60
2020/12/03 04:25:29;;;;;;;44.67;22.73;;;6.40;99.90;;;;;;5084309;28;20025;-60
2020/12/03 04:27:54;;;;;;;47.38;23.00;;;6.40;99.90;;;;;;5085673;28;20081;-60
2020/12/03 04:30:20;;;;;;;37.03;22.17;;;6.40;99.90;;;;;;5093439;28;20032;-61
2020/12/03 04:32:46;;;;;;;41.70;24.02;;;6.50;99.90;;;;;;5091989;28;20031;-60
2020/12/03 04:35:12;;;;;;;44.08;22.60;;;6.50;99.90;;;;;;5093121;28;20481;-60
2020/12/03 04:37:38;;;;;;;45.30;23.00;;;6.50;99.90;;;;;;5096082;28;20115;-59
2020/12/03 04:40:08;;;;;;;38.13;21.10;;;6.60;99.90;;;;;;5093539;28;20557;-61
2020/12/03 04:42:36;;;;;;;38.92;22.55;;;6.70;99.90;;;;;;5092526;28;20028;-60
2020/12/03 04:45:24;;;;;;;49.78;24.95;;;6.70;99.90;;;;;;5091495;28;20039;-60
2020/12/03 04:48:12;;;;;;;45.85;23.55;;;6.70;99.90;;;;;;5086733;28;20044;-60
2020/12/03 04:51:01;;;;;;;45.85;23.42;;;6.70;99.90;;;;;;5086149;28;20470;-60
2020/12/03 04:53:38;;;;;;;45.50;24.98;;;6.80;99.90;;;;;;5091205;28;20028;-62
2020/12/03 04:56:09;;;;;;;47.45;24.15;;;6.80;99.90;;;;;;5088413;28;20017;-59
2020/12/03 04:59:04;;;;;;;45.67;24.00;;;6.80;99.90;;;;;;5071614;28;20434;-60
2020/12/03 05:01:52;;;;;;;42.10;24.45;;;6.80;99.90;;;;;;5047337;28;20029;-59
2020/12/03 05:04:39;;;;;;;49.22;25.13;;;6.70;99.90;;;;;;5089409;28;20044;-60
2020/12/03 05:07:10;;;;;;;40.55;23.65;;;6.60;99.90;;;;;;5091962;28;20028;-61
2020/12/03 05:09:46;;;;;;;42.97;25.08;;;6.70;99.90;;;;;;5088419;28;20031;-61
2020/12/03 05:12:24;;;;;;;43.45;24.45;;;6.70;99.90;;;;;;5086214;28;20103;-61
2020/12/03 05:15:05;;;;;;;47.20;25.42;;;6.70;99.90;;;;;;5090028;28;20025;-61
2020/12/03 05:17:49;;;;;;;42.10;23.50;;;6.70;99.90;;;;;;5091123;28;20091;-59
2020/12/03 05:20:24;;;;;;;44.95;24.40;;;6.70;99.90;;;;;;5087643;28;20112;-60
2020/12/03 05:22:58;;;;;;;46.25;23.88;;;6.60;99.90;;;;;;5088014;28;20107;-61
2020/12/03 05:25:24;;;;;;;43.15;24.95;;;6.70;99.90;;;;;;5080643;28;20078;-61
2020/12/03 05:27:53;;;;;;;43.60;24.20;;;6.70;99.90;;;;;;5086428;28;20398;-59
2020/12/03 05:30:22;;;;;;;43.03;24.52;;;6.70;99.90;;;;;;5067633;28;20030;-59
2020/12/03 05:32:48;;;;;;;42.45;24.70;;;6.70;99.90;;;;;;5073684;28;20040;-59
2020/12/03 05:35:13;;;;;;;44.25;24.33;;;6.70;99.90;;;;;;5089394;28;20385;-60
2020/12/03 05:37:40;;;;;;;42.83;24.45;;;6.70;99.90;;;;;;5094464;28;20586;-60
2020/12/03 05:40:21;;;;;;;43.60;23.15;;;6.70;99.90;;;;;;5090753;28;20102;-60
2020/12/03 05:42:49;;;;;;;45.35;23.52;;;6.70;99.90;;;;;;5089407;28;20024;-60
2020/12/03 05:45:26;;;;;;;46.03;24.40;;;6.70;99.90;;;;;;5088503;28;20026;-61
2020/12/03 05:47:52;;;;;;;47.45;24.38;;;6.70;99.90;;;;;;5081258;28;20428;-60
2020/12/03 05:50:33;;;;;;;46.25;24.35;;;6.70;99.90;;;;;;5085279;28;20111;-60
2020/12/03 05:53:13;;;;;;;43.25;24.27;;;6.60;99.90;;;;;;5078838;28;20024;-61
2020/12/03 05:55:39;;;;;;;37.03;22.88;;;6.60;99.90;;;;;;5080678;28;20513;-60
2020/12/03 05:58:26;;;;;;;39.88;22.30;;;6.60;99.90;;;;;;5068930;28;20379;-64
2020/12/03 06:01:08;;;;;;;44.33;24.40;;;6.60;99.90;;;;;;5082087;28;20028;-60
2020/12/03 06:04:03;;;;;;;42.03;22.17;;;6.50;99.90;;;;;;5086355;28;20109;-60
2020/12/03 06:06:50;;;;;;;42.15;22.73;;;6.50;99.90;;;;;;5078557;28;20028;-61
2020/12/03 06:09:41;;;;;;;49.47;24.02;;;6.50;99.90;;;;;;5076780;28;20384;-61
2020/12/03 06:12:20;;;;;;;42.45;24.17;;;6.50;99.90;;;;;;5085194;28;20482;-60
2020/12/03 06:14:57;;;;;;;49.97;23.67;;;6.50;99.90;;;;;;5086236;28;20032;-61
2020/12/03 06:17:42;;;;;;;45.70;24.25;;;6.50;99.90;;;;;;5079967;28;20029;-61
2020/12/03 06:20:27;;;;;;;44.28;22.20;;;6.50;99.90;;;;;;5091396;28;20438;-60
2020/12/03 06:23:35;;;;;;;42.53;23.50;;;6.50;99.90;;;;;;5084235;28;20033;-60
2020/12/03 06:26:22;;;;;;;43.88;23.08;;;6.50;99.90;;;;;;5088655;28;20070;-60
2020/12/03 06:29:15;;;;;;;48.95;24.90;;;6.50;99.90;;;;;;5090732;28;20069;-61
2020/12/03 06:32:15;;;;;;;43.78;23.98;;;6.60;99.90;;;;;;5083963;28;20024;-61
2020/12/03 06:35:09;;;;;;;50.85;24.42;;;6.60;99.90;;;;;;5091067;28;20077;-62
2020/12/03 06:37:44;;;;;;;47.75;24.73;;;6.60;99.90;;;;;;5094288;28;20090;-61
2020/12/03 06:40:24;;;;;;;45.97;23.98;;;6.60;99.90;;;;;;5084224;28;20021;-60
2020/12/03 06:42:56;;;;;;;57.13;26.55;;;6.60;99.90;;;;;;5087250;28;20043;-60
2020/12/03 06:46:07;;;;;;;47.00;23.20;;;6.60;99.90;;;;;;5086167;28;20013;-61
2020/12/03 06:48:45;;;;;;;44.05;23.23;;;6.60;99.90;;;;;;5095562;28;20020;-60
2020/12/03 06:51:37;;;;;;;48.15;23.02;;;6.60;99.90;;;;;;5089081;28;20027;-61
2020/12/03 06:54:20;;;;;;;49.80;23.70;;;6.60;99.90;;;;;;5059065;28;20024;-60
2020/12/03 06:57:28;;;;;;;45.28;23.10;;;6.70;99.90;;;;;;5085037;28;20036;-60
2020/12/03 07:00:03;;;;;;;54.15;24.60;;;6.60;99.90;;;;;;5083688;28;20102;-59
2020/12/03 07:03:06;;;;;;;40.88;23.30;;;6.60;99.90;;;;;;5086144;28;20031;-61
2020/12/03 07:05:47;;;;;;;;;;;6.60;99.90;;;;;;5090214;28;20382;-60
2020/12/03 07:08:43;;;;;;;45.20;23.15;;;6.70;99.90;;;;;;5075150;28;19908;-61
2020/12/03 07:11:22;;;;;;;51.72;23.48;;;6.70;99.90;;;;;;5085914;28;20278;-60
2020/12/03 07:14:12;;;;;;;49.70;24.30;;;6.70;99.90;;;;;;5088301;28;20399;-61
2020/12/03 07:17:11;;;;;;;52.25;25.63;;;6.60;99.90;;;;;;5086724;28;20046;-61
2020/12/03 07:20:02;;;;;;;49.33;26.00;;;6.60;99.90;;;;;;5101053;28;20424;-60
2020/12/03 07:22:37;;;;;;;50.10;24.83;;;6.60;99.90;;;;;;5111963;28;20028;-60
2020/12/03 07:25:04;;;;;;;57.63;26.80;;;6.70;99.90;;;;;;5113919;28;20067;-60
2020/12/03 07:27:52;;;;;;;52.80;27.65;;;6.70;99.90;;;;;;5093160;28;20016;-59
2020/12/03 07:30:30;;;;;;;55.88;29.17;;;6.70;99.90;;;;;;5093974;28;20324;-59
2020/12/03 07:33:13;;;;;;;59.13;28.58;;;6.70;99.90;;;;;;5093170;28;20639;-60
2020/12/03 07:36:09;;;;;;;56.10;28.95;;;6.70;99.90;;;;;;5088701;28;20024;-61
2020/12/03 07:38:55;;;;;;;56.30;28.25;;;6.70;99.90;;;;;;5088318;28;20030;-61
2020/12/03 07:41:24;;;;;;;52.13;26.23;;;6.70;99.90;;;;;;5080748;28;20024;-61
2020/12/03 07:44:04;;;;;;;49.65;25.67;;;6.70;99.90;;;;;;5090549;28;20074;-61
2020/12/03 07:46:30;;;;;;;50.67;26.15;;;6.70;99.90;;;;;;5086702;28;20036;-61
2020/12/03 07:48:56;;;;;;;52.88;27.15;;;6.70;99.90;;;;;;5086765;28;20051;-61
2020/12/03 07:51:23;;;;;;;54.03;26.50;;;6.60;99.90;;;;;;5074401;28;20017;-64
2020/12/03 07:54:17;;;;;;;56.00;24.55;;;6.60;99.90;;;;;;5092133;28;20031;-61
2020/12/03 07:56:47;;;;;;;41.58;23.23;;;6.60;99.90;;;;;;5092981;28;20028;-61
2020/12/03 07:59:25;;;;;;;42.15;24.08;;;6.60;99.90;;;;;;5074135;28;20106;-61
2020/12/03 08:01:52;;;;;;;45.75;23.25;;;6.70;99.90;;;;;;5090328;28;20095;-60
2020/12/03 08:04:25;;;;;;;41.28;23.33;;;6.70;99.90;;;;;;5107821;28;20107;-60
2020/12/03 08:07:00;;;;;;;35.50;20.55;;;6.70;99.90;;;;;;5076551;28;20040;-61
2020/12/03 08:09:35;;;;;;;39.65;22.55;;;6.60;99.90;;;;;;5091673;28;20050;-61
2020/12/03 08:12:02;;;;;;;35.05;21.40;;;6.70;99.90;;;;;;5092242;28;20024;-62
2020/12/03 08:14:50;;;;;;;40.10;22.65;;;6.70;99.90;;;;;;5079212;28;20021;-61
2020/12/03 08:17:22;;;;;;;36.03;22.55;;;6.70;99.90;;;;;;5088406;28;20023;-61
2020/12/03 08:20:08;;;;;;;38.60;22.67;;;6.80;99.90;;;;;;5091345;28;20299;-61
2020/12/03 08:22:39;;;;;;;45.35;22.83;;;6.80;99.90;;;;;;5094560;28;20035;-59
2020/12/03 08:25:12;;;;;;;43.90;25.20;;;6.70;99.90;;;;;;5109362;28;20076;-60
2020/12/03 08:27:38;;;;;;;41.10;25.67;;;6.70;99.90;;;;;;5097163;28;20115;-62
2020/12/03 08:30:39;;;;;;;43.42;26.33;;;6.70;99.90;;;;;;5075982;28;20024;-63
2020/12/03 08:33:08;;;;;;;48.92;26.00;;;6.70;99.90;;;;;;5090773;28;20032;-59
2020/12/03 08:35:34;;;;;;;47.58;27.77;;;6.70;99.90;;;;;;5088022;28;20021;-62
2020/12/03 08:38:04;;;;;;;50.53;28.65;;;6.60;99.90;;;;;;5091959;28;20037;-61
2020/12/03 08:40:32;;;;;;;50.08;28.25;;;6.60;99.90;;;;;;5083602;28;20048;-60
2020/12/03 08:43:03;;;;;;;48.55;28.40;;;6.60;99.90;;;;;;5092154;28;20478;-61
2020/12/03 08:45:30;;;;;;;47.97;28.55;;;6.60;99.90;;;;;;5082910;28;20065;-60
2020/12/03 08:47:56;;;;;;;55.25;30.10;;;6.60;99.90;;;;;;5065842;28;20028;-60
2020/12/03 08:50:22;;;;;;;52.10;28.95;;;6.60;99.90;;;;;;5088713;28;20592;-61
2020/12/03 08:52:48;;;;;;;50.90;29.48;;;6.60;99.90;;;;;;5088939;28;20047;-62
2020/12/03 08:55:14;;;;;;;54.33;28.48;;;6.60;99.90;;;;;;5090022;28;20024;-61
2020/12/03 08:57:42;;;;;;;48.78;27.52;;;6.60;99.90;;;;;;5090941;28;20465;-60
2020/12/03 09:00:13;;;;;;;61.78;28.33;;;6.60;99.90;;;;;;5091562;28;20041;-63
2020/12/03 09:02:40;;;;;;;48.17;27.30;;;6.60;99.90;;;;;;5093558;28;20046;-60
2020/12/03 09:05:07;;;;;;;42.20;25.50;;;6.60;99.90;;;;;;5099570;28;20077;-61
2020/12/03 09:07:40;;;;;;;42.33;25.92;;;6.60;99.90;;;;;;5103697;28;20019;-60
2020/12/03 09:10:09;;;;;;;46.20;25.90;;;6.60;99.90;;;;;;5078224;28;20099;-61
2020/12/03 09:12:37;;;;;;;41.70;22.85;;;6.60;99.90;;;;;;5090288;28;20016;-60
2020/12/03 09:15:08;;;;;;;38.75;22.38;;;6.50;99.90;;;;;;5059611;28;20458;-59
2020/12/03 09:17:39;;;;;;;37.85;22.65;;;6.50;99.90;;;;;;5064929;28;20124;-62
2020/12/03 09:20:06;;;;;;;40.97;23.30;;;6.60;99.90;;;;;;5081928;28;20058;-62
2020/12/03 09:22:34;;;;;;;39.92;22.75;;;6.50;99.90;;;;;;5088480;28;20020;-59
2020/12/03 09:25:02;;;;;;;40.90;23.92;;;6.50;99.90;;;;;;5083770;28;20020;-60
2020/12/03 09:27:29;;;;;;;35.65;22.45;;;6.50;99.90;;;;;;5092256;28;20035;-60
2020/12/03 09:29:54;;;;;;;42.35;22.55;;;6.50;99.90;;;;;;5090030;28;20072;-61
2020/12/03 09:32:23;;;;;;;44.65;22.83;;;6.50;99.90;;;;;;5079908;28;20020;-61
2020/12/03 09:34:52;;;;;;;43.10;23.73;;;6.50;99.90;;;;;;5085393;28;20035;-61
2020/12/03 09:37:18;;;;;;;42.17;24.05;;;6.50;99.90;;;;;;5074252;28;20066;-61
2020/12/03 09:39:44;;;;;;;41.50;23.60;;;6.50;99.90;;;;;;5083103;28;20044;-61
2020/12/03 09:42:15;;;;;;;40.40;24.67;;;6.60;99.90;;;;;;5086152;28;20012;-60
2020/12/03 09:44:46;;;;;;;38.45;22.90;;;6.60;99.90;;;;;;5072363;28;20082;-60
2020/12/03 09:47:18;;;;;;;39.85;23.42;;;6.60;99.90;;;;;;5091785;28;20024;-62
2020/12/03 09:49:45;;;;;;;45.83;24.25;;;6.60;99.90;;;;;;5090342;28;20031;-61
2020/12/03 09:52:13;;;;;;;45.28;24.27;;;6.60;99.90;;;;;;5083631;28;20153;-61
2020/12/03 09:54:40;;;;;;;47.85;26.25;;;6.60;99.90;;;;;;5090301;28;20070;-62
2020/12/03 09:57:09;;;;;;;44.78;26.38;;;6.60;99.90;;;;;;5077532;28;20028;-60
2020/12/03 09:59:36;;;;;;;44.78;25.50;;;6.60;99.90;;;;;;5090784;28;20106;-61
2020/12/03 10:02:11;;;;;;;40.47;25.30;;;6.50;99.90;;;;;;5067639;28;20025;-61
2020/12/03 10:05:02;;;;;;;57.47;28.15;;;6.60;99.90;;;;;;5059023;28;20072;-60
2020/12/03 10:08:02;;;;;;;42.22;25.42;;;6.60;99.90;;;;;;5062945;28;20032;-60
2020/12/03 10:10:36;;;;;;;46.72;24.55;;;6.50;99.90;;;;;;5061463;28;20493;-61
2020/12/03 10:13:36;;;;;;;46.05;27.00;;;6.50;99.90;;;;;;5075385;28;20144;-61
2020/12/03 10:16:07;;;;;;;42.78;25.17;;;6.60;99.90;;;;;;5069095;28;20026;-62
2020/12/03 10:18:44;;;;;;;48.03;25.77;;;6.60;99.90;;;;;;5065197;28;20021;-61
2020/12/03 10:21:13;;;;;;;45.47;26.63;;;6.60;99.90;;;;;;5071073;28;20027;-61
2020/12/03 10:23:44;;;;;;;45.50;26.17;;;6.60;99.90;;;;;;5072201;28;20100;-61
2020/12/03 10:26:30;;;;;;;49.20;26.58;;;6.60;99.90;;;;;;5074928;28;20120;-60
2020/12/03 10:29:15;;;;;;;48.63;27.33;;;6.70;99.90;;;;;;5049964;28;20020;-61
2020/12/03 10:31:44;;;;;;;45.85;24.92;;;6.70;99.90;;;;;;5064489;28;20076;-61
2020/12/03 10:34:14;;;;;;;49.50;25.88;;;6.70;99.90;;;;;;5070894;28;20340;-62
2020/12/03 10:36:56;;;;;;;43.33;23.70;;;6.70;99.90;;;;;;5072792;28;20090;-62
2020/12/03 10:39:30;;;;;;;39.97;24.17;;;6.70;99.90;;;;;;5082212;28;20537;-62
2020/12/03 10:41:56;;;;;;;37.92;23.30;;;6.70;99.90;;;;;;5062684;28;20028;-60
2020/12/03 10:44:26;;;;;;;40.67;24.65;;;6.70;99.90;;;;;;5074921;28;20491;-60
2020/12/03 10:47:04;;;;;;;36.63;20.77;;;6.70;99.90;;;;;;5084453;28;20016;-62
2020/12/03 10:49:35;;;;;;;30.08;20.20;;;6.70;99.90;;;;;;5082121;28;20052;-62
2020/12/03 10:52:03;;;;;;;36.90;20.15;;;6.70;99.90;;;;;;5083056;28;20051;-60
2020/12/03 10:54:32;;;;;;;36.40;19.13;;;6.70;99.90;;;;;;5062296;28;20517;-60
2020/12/03 10:57:22;;;;;;;30.83;18.75;;;6.70;99.90;;;;;;5064579;28;20487;-61
2020/12/03 10:59:50;;;;;;;35.92;19.70;;;6.80;99.90;;;;;;5057279;28;20163;-60
2020/12/03 11:02:41;;;;;;;30.10;18.63;;;6.80;99.90;;;;;;5074851;28;20024;-60
2020/12/03 11:05:09;;;;;;;34.35;19.02;;;6.80;99.90;;;;;;5078656;23;20053;-67
2020/12/03 11:07:36;;;;;;;31.00;18.70;;;6.70;99.90;;;;;;5078201;28;20032;-66
2020/12/03 11:10:02;;;;;;;34.65;17.60;;;6.80;99.90;;;;;;5071719;28;20438;-67
2020/12/03 11:12:29;;;;;;;31.40;18.38;;;6.80;99.90;;;;;;5054891;28;20028;-67
2020/12/03 11:15:03;;;;;;;33.35;19.13;;;6.80;99.90;;;;;;5054629;28;20641;-67
2020/12/03 11:17:32;;;;;;;30.83;16.65;;;6.80;99.90;;;;;;5073250;28;20020;-67
2020/12/03 11:19:59;;;;;;;36.80;19.48;;;6.80;99.90;;;;;;5069593;28;20025;-68
2020/12/03 11:22:37;;;;;;;31.60;18.08;;;6.80;99.90;;;;;;5067227;28;20024;-66
2020/12/03 11:25:05;;;;;;;38.85;20.50;;;6.80;99.90;;;;;;5075681;28;20032;-68
2020/12/03 11:27:31;;;;;;;38.13;21.42;;;6.80;99.90;;;;;;5062756;28;20090;-66
2020/12/03 11:29:57;;;;;;;42.83;21.58;;;6.70;99.90;;;;;;5054086;28;20105;-66
2020/12/03 11:32:26;;;;;;;37.97;21.33;;;6.70;99.90;;;;;;5070799;28;20024;-68
2020/12/03 11:34:52;;;;;;;40.85;21.02;;;6.70;99.90;;;;;;5075927;28;20088;-65
2020/12/03 11:37:26;;;;;;;32.97;20.90;;;6.70;99.90;;;;;;5074055;28;20389;-66
2020/12/03 11:40:04;;;;;;;41.10;22.02;;;6.70;99.90;;;;;;5070290;28;20032;-67
2020/12/03 11:50:26;;;;;;;42.15;22.95;;;6.70;99.90;;;;;;5058339;28;20025;-68
2020/12/03 11:53:00;;;;;;;37.03;21.75;;;6.70;99.90;;;;;;5068042;28;20059;-66
2020/12/03 11:55:25;;;;;;;37.85;21.50;;;6.70;99.90;;;;;;5058082;28;20037;-69
2020/12/03 11:57:51;;;;;;;37.38;19.83;;;6.60;99.90;;;;;;5065054;28;20061;-67
2020/12/03 12:00:22;;;;;;;36.13;19.42;;;6.70;99.90;;;;;;5078350;28;20016;-68
2020/12/03 12:02:52;;;;;;;34.17;19.67;;;6.70;99.90;;;;;;5066936;28;20367;-67
2020/12/03 12:10:59;;;;;;;30.50;18.38;;;6.70;99.90;;;;;;5063704;28;20118;-67
2020/12/03 12:13:24;;;;;;;35.47;18.08;;;6.70;99.90;;;;;;5073380;28;20141;-67
2020/12/03 12:15:50;;;;;;;30.00;17.30;;;6.80;99.90;;;;;;5057605;28;20020;-67
2020/12/03 12:18:16;;;;;;;32.78;16.85;;;6.80;99.90;;;;;;5063722;28;20071;-67
2020/12/03 12:20:42;;;;;;;28.65;16.02;;;6.70;99.90;;;;;;5052490;28;20032;-67
2020/12/03 12:23:08;;;;;;;34.67;16.15;;;6.70;99.90;;;;;;5068188;28;20020;-66
2020/12/03 12:25:33;;;;;;;35.88;15.93;;;6.70;99.90;;;;;;5072650;28;20021;-66
2020/12/03 12:27:59;;;;;;;29.83;17.02;;;6.70;99.90;;;;;;5040067;28;20016;-66
2020/12/03 12:30:25;;;;;;;27.42;15.77;;;6.70;99.90;;;;;;5066441;28;20024;-68
2020/12/03 12:32:50;;;;;;;27.98;15.40;;;6.80;99.90;;;;;;5074322;28;20559;-67
2020/12/03 12:35:16;;;;;;;24.52;15.32;;;6.70;99.90;;;;;;5060688;28;20017;-67
2020/12/03 12:37:42;;;;;;;31.67;16.50;;;6.70;99.90;;;;;;5068234;28;20448;-66
2020/12/03 12:40:08;;;;;;;31.05;17.25;;;6.70;99.90;;;;;;5057750;28;20367;-67
2020/12/03 12:42:34;;;;;;;31.70;16.55;;;6.70;99.90;;;;;;5072142;28;20028;-67
2020/12/03 12:45:00;;;;;;;29.33;16.67;;;6.70;99.90;;;;;;5070566;28;20020;-69
2020/12/03 12:47:26;;;;;;;28.90;16.88;;;6.60;99.90;;;;;;5065128;28;20046;-67
2020/12/03 12:49:51;;;;;;;34.17;16.67;;;6.60;99.90;;;;;;5072845;28;20148;-66
2020/12/03 12:52:17;;;;;;;29.92;14.93;;;6.60;99.90;;;;;;5069316;28;20031;-68
2020/12/03 12:54:44;;;;;;;29.27;14.73;;;6.60;99.90;;;;;;5062198;28;20029;-68
2020/12/03 12:57:09;;;;;;;28.23;14.43;;;6.50;99.90;;;;;;5067842;28;20040;-67
2020/12/03 12:59:35;;;;;;;26.90;14.93;;;6.60;99.90;;;;;;5071612;28;20024;-68
2020/12/03 13:02:00;;;;;;;27.42;14.68;;;6.60;99.90;;;;;;5072626;28;20024;-67
2020/12/03 13:04:26;;;;;;;31.70;15.25;;;6.60;99.90;;;;;;5056202;28;20036;-69
2020/12/03 13:06:56;;;;;;;24.33;13.07;;;6.60;99.90;;;;;;5068343;28;20388;-67
2020/12/03 13:09:22;;;;;;;22.63;12.82;;;6.50;99.90;;;;;;5070869;28;20025;-67
2020/12/03 13:11:50;;;;;;;22.40;13.10;;;6.50;99.90;;;;;;5059230;28;20032;-67
2020/12/03 13:14:16;;;;;;;29.42;13.50;;;6.50;99.90;;;;;;5060279;28;20020;-68